createdAt,value
2018-07-10T00:00:48.837Z,25.40
2018-07-10T00:03:15.680Z,25.30
2018-07-10T00:05:42.511Z,25.40
2018-07-10T00:08:09.405Z,25.30
2018-07-10T00:10:36.195Z,25.40
2018-07-10T00:13:03.005Z,25.40
2018-07-10T00:15:29.832Z,25.30
2018-07-10T00:17:56.658Z,25.30
2018-07-10T00:22:50.611Z,25.30
2018-07-10T00:25:17.438Z,25.30
2018-07-10T00:27:44.261Z,25.30
2018-07-10T00:30:11.078Z,25.30
2018-07-10T00:35:05.063Z,25.30
2018-07-10T00:37:31.900Z,25.30
2018-07-10T00:39:58.728Z,25.40
2018-07-10T00:42:25.573Z,25.30
2018-07-10T00:44:52.407Z,25.30
2018-07-10T00:47:19.239Z,25.30
2018-07-10T00:49:46.064Z,25.30
2018-07-10T00:52:12.946Z,25.30
2018-07-10T00:54:39.785Z,25.30
2018-07-10T00:57:06.626Z,25.30
2018-07-10T00:59:33.453Z,25.30
2018-07-10T01:02:00.343Z,25.30
2018-07-10T01:04:27.163Z,25.30
2018-07-10T01:06:53.973Z,25.30
2018-07-10T01:09:20.822Z,25.30
2018-07-10T01:11:47.694Z,25.30
2018-07-10T01:14:14.514Z,25.30
2018-07-10T01:16:41.325Z,25.30
2018-07-10T01:19:08.156Z,25.30
2018-07-10T01:21:35.065Z,25.30
2018-07-10T01:24:01.886Z,25.30
2018-07-10T01:26:28.714Z,25.30
2018-07-10T01:28:55.529Z,25.30
2018-07-10T01:31:22.437Z,25.30
2018-07-10T01:33:49.297Z,25.30
2018-07-10T01:36:16.096Z,25.30
2018-07-10T01:38:42.925Z,25.30
2018-07-10T01:41:09.804Z,25.30
2018-07-10T01:43:36.624Z,25.30
2018-07-10T01:46:03.462Z,25.30
2018-07-10T01:48:30.282Z,25.30
2018-07-10T01:50:57.169Z,25.30
2018-07-10T01:53:24.002Z,25.30
2018-07-10T01:55:50.829Z,25.30
2018-07-10T01:58:17.652Z,25.30
2018-07-10T02:00:44.552Z,25.30
2018-07-10T02:03:11.393Z,25.30
2018-07-10T02:05:38.225Z,25.30
2018-07-10T02:08:05.050Z,25.30
2018-07-10T02:10:31.881Z,25.30
2018-07-10T02:12:58.707Z,25.30
2018-07-10T02:15:25.520Z,25.30
2018-07-10T02:17:52.337Z,25.30
2018-07-10T02:20:19.158Z,25.30
2018-07-10T02:22:45.978Z,25.30
2018-07-10T02:25:12.799Z,25.30
2018-07-10T02:27:39.618Z,25.30
2018-07-10T02:30:06.437Z,25.30
2018-07-10T02:32:33.309Z,25.20
2018-07-10T02:35:00.118Z,25.20
2018-07-10T02:37:26.941Z,25.20
2018-07-10T02:39:53.757Z,25.20
2018-07-10T02:44:47.723Z,25.20
2018-07-10T02:47:14.691Z,25.20
2018-07-10T02:49:41.518Z,25.30
2018-07-10T02:52:08.456Z,25.20
2018-07-10T02:54:35.282Z,25.20
2018-07-10T02:57:02.097Z,25.20
2018-07-10T02:59:28.924Z,25.20
2018-07-10T03:01:55.832Z,25.20
2018-07-10T03:04:22.646Z,25.20
2018-07-10T03:06:49.471Z,25.20
2018-07-10T03:09:16.299Z,25.20
2018-07-10T03:11:43.209Z,25.20
2018-07-10T03:14:10.011Z,25.20
2018-07-10T03:16:36.844Z,25.20
2018-07-10T03:19:03.660Z,25.20
2018-07-10T03:21:30.573Z,25.20
2018-07-10T03:23:57.409Z,25.20
2018-07-10T03:26:24.227Z,25.20
2018-07-10T03:28:51.047Z,25.20
2018-07-10T03:31:17.949Z,25.20
2018-07-10T03:33:44.770Z,25.20
2018-07-10T03:36:11.586Z,25.20
2018-07-10T03:38:38.409Z,25.20
2018-07-10T03:41:05.319Z,25.20
2018-07-10T03:43:32.146Z,25.20
2018-07-10T03:45:58.980Z,25.20
2018-07-10T03:48:25.832Z,25.30
2018-07-10T03:50:52.689Z,25.30
2018-07-10T03:53:19.507Z,25.20
2018-07-10T03:55:46.337Z,25.20
2018-07-10T03:58:13.176Z,25.20
2018-07-10T04:00:40.057Z,25.20
2018-07-10T04:03:06.891Z,25.20
2018-07-10T04:05:33.714Z,25.20
2018-07-10T04:08:00.535Z,25.20
2018-07-10T04:10:27.469Z,25.20
2018-07-10T04:12:54.725Z,25.20
2018-07-10T04:15:21.518Z,25.20
2018-07-10T04:17:48.353Z,25.20
2018-07-10T04:20:15.183Z,25.20
2018-07-10T04:22:42.012Z,25.20
2018-07-10T04:25:08.825Z,25.20
2018-07-10T04:27:35.656Z,25.20
2018-07-10T04:30:02.532Z,25.20
2018-07-10T04:32:29.425Z,25.30
2018-07-10T04:34:56.246Z,25.30
2018-07-10T04:37:23.085Z,25.30
2018-07-10T04:39:49.909Z,25.30
2018-07-10T04:42:16.818Z,25.30
2018-07-10T04:44:43.735Z,25.30
2018-07-10T04:47:10.802Z,25.20
2018-07-10T04:49:37.610Z,25.20
2018-07-10T04:52:04.581Z,25.20
2018-07-10T04:54:31.404Z,25.20
2018-07-10T04:56:58.238Z,25.20
2018-07-10T04:59:25.105Z,25.20
2018-07-10T05:01:51.958Z,25.30
2018-07-10T05:04:18.787Z,25.30
2018-07-10T05:06:45.604Z,25.30
2018-07-10T05:09:12.458Z,25.30
2018-07-10T05:11:39.330Z,25.30
2018-07-10T05:14:06.157Z,25.20
2018-07-10T05:16:32.988Z,25.30
2018-07-10T05:18:59.809Z,25.30
2018-07-10T05:21:26.699Z,25.30
2018-07-10T05:23:53.531Z,25.20
2018-07-10T05:26:20.347Z,25.20
2018-07-10T05:28:47.215Z,25.20
2018-07-10T05:31:14.063Z,25.20
2018-07-10T05:33:40.893Z,25.20
2018-07-10T05:36:07.726Z,25.20
2018-07-10T05:38:34.583Z,25.20
2018-07-10T05:41:01.443Z,25.20
2018-07-10T05:43:28.262Z,25.20
2018-07-10T05:45:55.084Z,25.20
2018-07-10T05:48:21.918Z,25.20
2018-07-10T05:50:48.804Z,25.20
2018-07-10T05:53:15.634Z,25.10
2018-07-10T05:55:42.455Z,25.20
2018-07-10T05:58:09.286Z,25.20
2018-07-10T06:00:36.220Z,25.20
2018-07-10T06:03:03.061Z,25.20
2018-07-10T06:05:29.894Z,25.20
2018-07-10T06:07:56.706Z,25.20
2018-07-10T06:10:23.554Z,25.20
2018-07-10T06:12:50.359Z,25.20
2018-07-10T06:15:17.219Z,25.20
2018-07-10T06:17:44.023Z,25.20
2018-07-10T06:20:10.839Z,25.20
2018-07-10T06:22:37.687Z,25.20
2018-07-10T06:25:04.690Z,25.20
2018-07-10T06:27:31.577Z,25.20
2018-07-10T06:32:25.547Z,25.20
2018-07-10T06:34:52.374Z,25.20
2018-07-10T06:37:19.312Z,25.20
2018-07-10T06:39:46.192Z,25.20
2018-07-10T06:42:13.128Z,25.20
2018-07-10T06:44:39.950Z,25.20
2018-07-10T06:47:06.774Z,25.30
2018-07-10T06:49:33.598Z,25.30
2018-07-10T06:52:00.496Z,25.30
2018-07-10T06:54:27.319Z,25.30
2018-07-10T06:56:54.137Z,24.90
2018-07-10T06:59:20.966Z,24.50
2018-07-10T07:01:47.866Z,24.20
2018-07-10T07:04:15.302Z,24.10
2018-07-10T07:06:42.134Z,23.90
2018-07-10T07:09:08.979Z,23.90
2018-07-10T07:11:35.861Z,23.80
2018-07-10T07:14:02.674Z,23.80
2018-07-10T07:16:29.507Z,23.80
2018-07-10T07:18:56.334Z,23.80
2018-07-10T07:21:23.235Z,23.80
2018-07-10T07:23:50.121Z,23.70
2018-07-10T07:26:16.909Z,23.70
2018-07-10T07:28:43.730Z,23.70
2018-07-10T07:31:10.602Z,23.70
2018-07-10T07:33:37.425Z,23.70
2018-07-10T07:36:04.262Z,23.60
2018-07-10T07:38:31.091Z,23.60
2018-07-10T07:40:57.973Z,23.60
2018-07-10T07:43:24.806Z,23.60
2018-07-10T07:45:51.635Z,23.60
2018-07-10T07:48:18.468Z,23.60
2018-07-10T07:50:45.334Z,23.60
2018-07-10T07:53:12.155Z,23.60
2018-07-10T07:55:38.991Z,23.60
2018-07-10T07:58:05.983Z,23.60
2018-07-10T08:00:32.968Z,23.50
2018-07-10T08:02:59.635Z,23.50
2018-07-10T08:05:26.458Z,23.50
2018-07-10T08:07:53.292Z,23.50
2018-07-10T08:10:20.122Z,23.40
2018-07-10T08:12:46.944Z,23.40
2018-07-10T08:17:40.905Z,23.40
2018-07-10T08:20:07.726Z,23.40
2018-07-10T08:22:34.702Z,23.40
2018-07-10T08:25:01.596Z,23.40
2018-07-10T08:27:28.406Z,23.40
2018-07-10T08:29:55.220Z,23.30
2018-07-10T08:32:22.387Z,23.30
2018-07-10T08:34:49.222Z,23.30
2018-07-10T08:37:16.043Z,23.30
2018-07-10T08:39:42.870Z,23.30
2018-07-10T08:42:09.858Z,23.30
2018-07-10T08:44:36.684Z,23.30
2018-07-10T08:47:03.516Z,23.40
2018-07-10T08:49:30.351Z,23.40
2018-07-10T08:51:57.235Z,23.40
2018-07-10T08:54:24.059Z,23.40
2018-07-10T08:56:50.897Z,23.40
2018-07-10T08:59:18.925Z,23.40
2018-07-10T09:01:45.835Z,23.50
2018-07-10T09:04:12.682Z,23.40
2018-07-10T09:06:39.561Z,23.40
2018-07-10T09:09:06.375Z,23.40
2018-07-10T09:11:33.429Z,23.50
2018-07-10T09:14:00.285Z,23.50
2018-07-10T09:16:27.084Z,23.50
2018-07-10T09:18:53.919Z,23.50
2018-07-10T09:21:20.779Z,23.50
2018-07-10T09:23:47.606Z,23.50
2018-07-10T09:26:14.439Z,23.50
2018-07-10T09:28:41.279Z,23.60
2018-07-10T09:31:08.158Z,23.60
2018-07-10T09:33:35.125Z,23.70
2018-07-10T09:36:01.811Z,23.80
2018-07-10T09:38:28.643Z,23.80
2018-07-10T09:40:55.525Z,23.80
2018-07-10T09:43:22.359Z,23.70
2018-07-10T09:45:49.178Z,23.70
2018-07-10T09:48:16.017Z,23.70
2018-07-10T09:50:42.900Z,23.70
2018-07-10T09:53:09.738Z,23.70
2018-07-10T09:55:36.559Z,23.60
2018-07-10T09:58:03.407Z,23.60
2018-07-10T10:00:30.239Z,23.60
2018-07-10T10:02:57.066Z,23.50
2018-07-10T10:05:23.911Z,23.50
2018-07-10T10:07:50.735Z,23.50
2018-07-10T10:10:17.542Z,23.50
2018-07-10T10:12:44.391Z,23.50
2018-07-10T10:15:11.207Z,23.50
2018-07-10T10:17:38.058Z,23.50
2018-07-10T10:20:04.895Z,23.60
2018-07-10T10:22:31.849Z,23.60
2018-07-10T10:24:58.692Z,23.60
2018-07-10T10:27:25.525Z,23.60
2018-07-10T10:29:52.353Z,23.60
2018-07-10T10:32:19.391Z,23.70
2018-07-10T10:34:46.207Z,23.60
2018-07-10T10:37:13.030Z,23.60
2018-07-10T10:39:39.855Z,23.60
2018-07-10T10:42:06.806Z,23.50
2018-07-10T10:44:33.633Z,23.50
2018-07-10T10:47:00.497Z,23.40
2018-07-10T10:49:27.350Z,23.40
2018-07-10T10:51:54.178Z,23.40
2018-07-10T10:54:21.021Z,23.40
2018-07-10T10:56:47.849Z,23.30
2018-07-10T10:59:14.716Z,23.30
2018-07-10T11:01:41.539Z,23.30
2018-07-10T11:04:08.371Z,23.20
2018-07-10T11:06:35.206Z,23.20
2018-07-10T11:09:02.026Z,23.20
2018-07-10T11:11:28.926Z,23.10
2018-07-10T11:13:55.743Z,23.00
2018-07-10T11:16:22.568Z,22.90
2018-07-10T11:18:49.391Z,22.80
2018-07-10T11:21:16.294Z,22.80
2018-07-10T11:23:43.113Z,22.80
2018-07-10T11:26:09.932Z,22.80
2018-07-10T11:28:36.762Z,22.90
2018-07-10T11:31:03.655Z,22.90
2018-07-10T11:33:30.478Z,22.80
2018-07-10T11:35:57.305Z,22.80
2018-07-10T11:38:24.126Z,22.80
2018-07-10T11:40:51.030Z,22.80
2018-07-10T11:43:17.845Z,22.70
2018-07-10T11:45:44.703Z,22.80
2018-07-10T11:48:11.514Z,22.70
2018-07-10T11:50:38.405Z,22.80
2018-07-10T11:53:05.228Z,22.80
2018-07-10T11:55:32.059Z,22.80
2018-07-10T11:57:58.887Z,22.80
2018-07-10T12:00:25.726Z,22.80
2018-07-10T12:02:52.560Z,22.80
2018-07-10T12:05:19.390Z,22.90
2018-07-10T12:07:46.227Z,22.80
2018-07-10T12:10:13.045Z,22.80
2018-07-10T12:12:39.904Z,22.90
2018-07-10T12:15:06.744Z,22.80
2018-07-10T12:17:33.546Z,22.80
2018-07-10T12:20:00.358Z,22.90
2018-07-10T12:22:27.359Z,23.10
2018-07-10T12:24:54.179Z,23.10
2018-07-10T12:27:21.022Z,23.10
2018-07-10T12:29:47.841Z,23.10
2018-07-10T12:32:15.256Z,23.20
2018-07-10T12:34:42.162Z,23.30
2018-07-10T12:37:09.000Z,23.30
2018-07-10T12:39:35.834Z,23.30
2018-07-10T12:42:02.710Z,23.30
2018-07-10T12:44:29.549Z,23.30
2018-07-10T12:46:56.369Z,23.30
2018-07-10T12:49:23.267Z,23.30
2018-07-10T12:51:50.084Z,23.30
2018-07-10T12:54:16.911Z,23.40
2018-07-10T12:56:43.738Z,23.40
2018-07-10T12:59:10.570Z,23.40
2018-07-10T13:01:37.458Z,23.50
2018-07-10T13:04:04.279Z,23.50
2018-07-10T13:06:31.113Z,23.50
2018-07-10T13:08:57.924Z,23.60
2018-07-10T13:11:24.830Z,23.60
2018-07-10T13:13:51.649Z,23.70
2018-07-10T13:16:18.479Z,23.70
2018-07-10T13:18:45.306Z,23.70
2018-07-10T13:21:12.212Z,23.70
2018-07-10T13:23:39.029Z,23.60
2018-07-10T13:26:05.953Z,23.50
2018-07-10T13:28:32.812Z,23.40
2018-07-10T13:30:59.777Z,23.40
2018-07-10T13:33:26.605Z,23.30
2018-07-10T13:35:53.488Z,23.30
2018-07-10T13:38:20.259Z,23.40
2018-07-10T13:40:47.146Z,23.40
2018-07-10T13:43:13.983Z,23.40
2018-07-10T13:45:40.803Z,23.50
2018-07-10T13:48:07.626Z,23.60
2018-07-10T13:50:34.517Z,23.60
2018-07-10T13:53:01.349Z,23.60
2018-07-10T13:55:28.188Z,23.60
2018-07-10T13:57:55.013Z,23.60
2018-07-10T14:00:21.850Z,23.60
2018-07-10T14:02:48.673Z,23.60
2018-07-10T14:05:15.508Z,23.50
2018-07-10T14:07:42.346Z,23.50
2018-07-10T14:10:09.169Z,23.50
2018-07-10T14:12:36.014Z,23.50
2018-07-10T14:15:02.829Z,23.50
2018-07-10T14:17:29.660Z,23.40
2018-07-10T14:19:56.482Z,23.40
2018-07-10T14:22:23.530Z,23.40
2018-07-10T14:24:50.302Z,23.40
2018-07-10T14:27:17.133Z,23.40
2018-07-10T14:29:43.958Z,23.40
2018-07-10T14:32:10.837Z,23.40
2018-07-10T14:34:37.673Z,23.40
2018-07-10T14:37:04.501Z,23.40
2018-07-10T14:39:31.330Z,23.50
2018-07-10T14:41:58.229Z,23.60
2018-07-10T14:44:25.047Z,23.60
2018-07-10T14:46:51.870Z,23.60
2018-07-10T14:49:18.706Z,23.60
2018-07-10T14:51:45.592Z,23.60
2018-07-10T14:54:12.454Z,23.90
2018-07-10T14:56:39.252Z,24.10
2018-07-10T14:59:06.128Z,24.20
2018-07-10T15:01:32.956Z,24.30
2018-07-10T15:03:59.785Z,24.30
2018-07-10T15:06:26.611Z,24.40
2018-07-10T15:08:53.433Z,24.40
2018-07-10T15:11:20.349Z,24.40
2018-07-10T15:13:47.173Z,24.40
2018-07-10T15:16:14.004Z,24.50
2018-07-10T15:18:40.822Z,24.50
2018-07-10T15:21:07.702Z,24.50
2018-07-10T15:23:34.539Z,24.50
2018-07-10T15:26:01.343Z,24.50
2018-07-10T15:28:28.150Z,24.50
2018-07-10T15:33:22.128Z,24.60
2018-07-10T15:35:48.972Z,24.50
2018-07-10T15:38:15.795Z,24.50
2018-07-10T15:40:42.679Z,24.50
2018-07-10T15:43:09.498Z,24.50
2018-07-10T15:45:36.323Z,24.50
2018-07-10T15:48:03.146Z,24.50
2018-07-10T15:50:30.024Z,24.50
2018-07-10T15:52:56.837Z,24.60
2018-07-10T15:55:24.336Z,24.60
2018-07-10T15:57:51.130Z,24.60
2018-07-10T16:00:17.962Z,24.60
2018-07-10T16:02:44.876Z,24.60
2018-07-10T16:05:11.680Z,24.60
2018-07-10T16:07:38.507Z,24.60
2018-07-10T16:10:05.315Z,24.60
2018-07-10T16:12:32.132Z,24.60
2018-07-10T16:14:58.978Z,24.60
2018-07-10T16:17:26.734Z,24.60
2018-07-10T16:19:53.542Z,24.70
2018-07-10T16:22:20.414Z,24.70
2018-07-10T16:24:47.250Z,24.70
2018-07-10T16:27:14.090Z,24.70
2018-07-10T16:29:40.913Z,24.70
2018-07-10T16:32:07.789Z,24.70
2018-07-10T16:34:34.608Z,24.70
2018-07-10T16:37:01.434Z,24.70
2018-07-10T16:39:28.269Z,24.70
2018-07-10T16:41:55.164Z,24.60
2018-07-10T16:44:21.990Z,24.50
2018-07-10T16:46:48.801Z,24.40
2018-07-10T16:49:15.627Z,24.30
2018-07-10T16:51:42.583Z,24.30
2018-07-10T16:54:09.411Z,24.20
2018-07-10T16:56:36.243Z,24.20
2018-07-10T16:59:03.072Z,24.10
2018-07-10T17:01:29.979Z,24.10
2018-07-10T17:03:57.147Z,24.10
2018-07-10T17:06:23.996Z,24.00
2018-07-10T17:08:50.884Z,23.90
2018-07-10T17:11:17.685Z,23.90
2018-07-10T17:13:44.726Z,23.90
2018-07-10T17:16:11.617Z,23.90
2018-07-10T17:18:38.456Z,23.80
2018-07-10T17:21:05.470Z,23.80
2018-07-10T17:23:32.297Z,23.80
2018-07-10T17:25:59.143Z,23.80
2018-07-10T17:28:25.960Z,23.80
2018-07-10T17:30:52.848Z,23.90
2018-07-10T17:33:19.678Z,23.90
2018-07-10T17:35:46.502Z,23.90
2018-07-10T17:38:13.587Z,23.90
2018-07-10T17:40:41.438Z,23.90
2018-07-10T17:43:08.261Z,23.80
2018-07-10T17:45:35.100Z,23.80
2018-07-10T17:48:01.932Z,23.80
2018-07-10T17:50:29.261Z,23.80
2018-07-10T17:52:56.066Z,23.80
2018-07-10T17:55:23.693Z,23.70
2018-07-10T17:57:50.514Z,23.70
2018-07-10T18:00:17.390Z,23.70
2018-07-10T18:02:44.230Z,23.70
2018-07-10T18:05:11.572Z,23.70
2018-07-10T18:07:38.383Z,23.70
2018-07-10T18:10:05.206Z,23.70
2018-07-10T18:12:32.043Z,23.70
2018-07-10T18:14:58.894Z,23.80
2018-07-10T18:17:26.760Z,23.90
2018-07-10T18:22:46.936Z,24.30
2018-07-10T18:25:23.687Z,24.30
2018-07-10T18:27:50.518Z,24.40
2018-07-10T18:30:17.460Z,24.30
2018-07-10T18:32:44.255Z,23.90
2018-07-10T18:35:11.107Z,23.60
2018-07-10T18:37:37.956Z,23.50
2018-07-10T18:40:04.780Z,23.30
2018-07-10T18:42:31.607Z,23.50
2018-07-10T18:44:58.398Z,23.80
2018-07-10T18:47:26.566Z,24.00
2018-07-10T18:49:53.370Z,24.10
2018-07-10T18:52:20.240Z,24.20
2018-07-10T18:54:47.126Z,24.30
2018-07-10T18:57:13.928Z,24.30
2018-07-10T19:02:08.015Z,24.40
2018-07-10T19:04:34.860Z,24.40
2018-07-10T19:07:01.699Z,24.30
2018-07-10T19:09:28.536Z,24.30
2018-07-10T19:11:55.402Z,24.30
2018-07-10T19:14:22.218Z,24.30
2018-07-10T19:16:49.037Z,24.30
2018-07-10T19:19:15.881Z,24.40
2018-07-10T19:21:42.754Z,24.40
2018-07-10T19:24:09.605Z,24.40
2018-07-10T19:26:36.445Z,24.40
2018-07-10T19:29:03.285Z,24.40
2018-07-10T19:31:30.140Z,24.40
2018-07-10T19:33:56.971Z,24.40
2018-07-10T19:36:23.802Z,24.50
2018-07-10T19:38:50.624Z,24.50
2018-07-10T19:41:17.498Z,24.50
2018-07-10T19:43:44.311Z,24.50
2018-07-10T19:46:11.150Z,24.50
2018-07-10T19:48:37.995Z,24.50
2018-07-10T19:51:04.970Z,24.50
2018-07-10T19:53:31.789Z,24.50
2018-07-10T19:55:58.615Z,24.50
2018-07-10T19:58:25.440Z,24.50
2018-07-10T20:00:53.370Z,24.50
2018-07-10T20:03:21.740Z,24.50
2018-07-10T20:05:47.049Z,24.50
2018-07-10T20:08:13.873Z,24.50
2018-07-10T20:10:40.744Z,24.50
2018-07-10T20:13:07.579Z,24.50
2018-07-10T20:15:34.399Z,24.50
2018-07-10T20:18:01.228Z,24.60
2018-07-10T20:20:28.216Z,24.60
2018-07-10T20:22:55.235Z,24.60
2018-07-10T20:25:22.026Z,24.60
2018-07-10T20:27:49.037Z,24.60
2018-07-10T20:30:15.856Z,24.60
2018-07-10T20:32:42.700Z,24.50
2018-07-10T20:35:09.537Z,24.40
2018-07-10T20:37:36.364Z,24.30
2018-07-10T20:40:03.188Z,24.40
2018-07-10T20:42:30.013Z,24.40
2018-07-10T20:44:56.864Z,24.40
2018-07-10T20:47:24.096Z,24.40
2018-07-10T20:49:51.009Z,24.40
2018-07-10T20:52:17.883Z,24.40
2018-07-10T20:54:44.702Z,24.40
2018-07-10T20:57:11.532Z,24.40
2018-07-10T20:59:38.350Z,24.40
2018-07-10T21:02:05.265Z,24.40
2018-07-10T21:04:32.096Z,24.40
2018-07-10T21:06:58.924Z,24.40
2018-07-10T21:09:25.744Z,24.30
2018-07-10T21:11:52.626Z,24.40
2018-07-10T21:14:19.448Z,24.30
2018-07-10T21:16:46.274Z,24.30
2018-07-10T21:19:13.127Z,24.30
2018-07-10T21:21:39.997Z,24.30
2018-07-10T21:24:06.883Z,24.30
2018-07-10T21:26:33.700Z,24.40
2018-07-10T21:29:00.539Z,24.30
2018-07-10T21:31:27.367Z,24.30
2018-07-10T21:33:54.206Z,24.40
2018-07-10T21:36:21.039Z,24.30
2018-07-10T21:38:47.874Z,24.30
2018-07-10T21:41:14.738Z,24.30
2018-07-10T21:43:41.558Z,24.30
2018-07-10T21:46:08.389Z,24.30
2018-07-10T21:48:35.303Z,24.30
2018-07-10T21:51:02.110Z,24.30
2018-07-10T21:53:28.938Z,24.30
2018-07-10T21:55:55.762Z,24.30
2018-07-10T21:58:22.595Z,24.30
2018-07-10T22:00:49.496Z,24.30
2018-07-10T22:03:16.316Z,24.30
2018-07-10T22:05:43.142Z,24.30
2018-07-10T22:08:09.976Z,24.30
2018-07-10T22:10:36.901Z,24.30
2018-07-10T22:13:03.705Z,24.30
2018-07-10T22:15:30.526Z,24.30
2018-07-10T22:17:57.355Z,24.30
2018-07-10T22:20:24.184Z,24.30
2018-07-10T22:22:51.008Z,24.30
2018-07-10T22:25:17.828Z,24.30
2018-07-10T22:27:44.774Z,24.30
2018-07-10T22:30:11.595Z,24.30
2018-07-10T22:32:38.416Z,24.30
2018-07-10T22:35:05.249Z,24.30
2018-07-10T22:37:32.082Z,24.30
2018-07-10T22:39:58.914Z,24.30
2018-07-10T22:42:25.823Z,24.30
2018-07-10T22:44:52.632Z,24.30
2018-07-10T22:47:19.450Z,24.30
2018-07-10T22:49:46.276Z,24.30
2018-07-10T22:52:13.186Z,24.30
2018-07-10T22:54:40.013Z,24.30
2018-07-10T22:57:06.895Z,24.30
2018-07-10T22:59:33.735Z,24.30
2018-07-10T23:02:00.558Z,24.30
2018-07-10T23:04:27.405Z,24.30
2018-07-10T23:06:54.225Z,24.30
2018-07-10T23:09:21.045Z,24.30
2018-07-10T23:11:47.944Z,24.30
2018-07-10T23:14:14.759Z,24.30
2018-07-10T23:16:41.583Z,24.30
2018-07-10T23:19:08.418Z,24.30
2018-07-10T23:21:36.377Z,24.30
2018-07-10T23:24:03.157Z,24.30
2018-07-10T23:26:30.001Z,24.30
2018-07-10T23:28:56.822Z,24.30
2018-07-10T23:31:23.701Z,24.30
2018-07-10T23:33:50.519Z,24.20
2018-07-10T23:36:17.352Z,24.20
2018-07-10T23:38:44.173Z,24.20
2018-07-10T23:41:11.066Z,24.20
2018-07-10T23:43:37.890Z,24.20
2018-07-10T23:46:04.723Z,24.20
2018-07-10T23:48:31.560Z,24.20
2018-07-10T23:50:58.441Z,24.20
2018-07-10T23:53:25.285Z,24.20
2018-07-10T23:55:52.096Z,24.20
2018-07-10T23:58:18.914Z,24.20
